createdAt,value
2023-04-15T00:00:35.687Z,4.0811
2023-04-15T00:01:36.756Z,3.9482
2023-04-15T00:02:37.890Z,4.1147
2023-04-15T00:03:39.123Z,3.9373
2023-04-15T00:04:39.857Z,4.0100
2023-04-15T00:05:40.935Z,4.0833
2023-04-15T00:06:41.934Z,4.0299
2023-04-15T00:07:43.720Z,3.9311
2023-04-15T00:08:43.875Z,3.9482
2023-04-15T00:09:44.952Z,3.8358
2023-04-15T00:10:46.017Z,3.8506
2023-04-15T00:11:47.029Z,3.7941
2023-04-15T00:12:48.059Z,3.7797
2023-04-15T00:13:49.104Z,3.7495
2023-04-15T00:14:50.185Z,3.6162
2023-04-15T00:15:51.240Z,3.7004
2023-04-15T00:16:52.340Z,3.6088
2023-04-15T00:17:53.286Z,3.5591
2023-04-15T00:18:54.343Z,3.6168
2023-04-15T00:19:55.358Z,3.6020
2023-04-15T00:20:56.464Z,3.7542
2023-04-15T00:21:57.453Z,3.7890
2023-04-15T00:22:58.506Z,3.8346
2023-04-15T00:23:59.533Z,3.7450
2023-04-15T00:25:00.577Z,3.7701
2023-04-15T00:26:01.667Z,3.6939
2023-04-15T00:27:02.698Z,3.7460
2023-04-15T00:28:03.700Z,3.7384
2023-04-15T00:29:04.749Z,3.7807
2023-04-15T00:30:05.783Z,3.8789
2023-04-15T00:31:06.884Z,3.8054
2023-04-15T00:32:07.900Z,3.7972
2023-04-15T00:33:08.923Z,3.7918
2023-04-15T00:34:09.988Z,3.9038
2023-04-15T00:35:11.048Z,3.8952
2023-04-15T00:36:12.071Z,3.9286
2023-04-15T00:37:13.081Z,3.9215
2023-04-15T00:38:14.157Z,3.9210
2023-04-15T00:39:15.239Z,3.9067
2023-04-15T00:40:16.230Z,3.9613
2023-04-15T00:41:17.326Z,4.0069
2023-04-15T00:42:18.364Z,3.9484
2023-04-15T00:43:19.365Z,3.9030
2023-04-15T00:44:20.399Z,3.9264
2023-04-15T00:45:21.434Z,3.8962
2023-04-15T00:46:22.542Z,3.9202
2023-04-15T00:47:23.621Z,3.9936
2023-04-15T00:48:24.568Z,3.9342
2023-04-15T00:49:25.624Z,3.9036
2023-04-15T00:50:26.693Z,4.1630
2023-04-15T00:51:27.708Z,4.0414
2023-04-15T00:52:28.825Z,4.1094
2023-04-15T00:53:29.834Z,4.0868
2023-04-15T00:54:30.843Z,4.1267
2023-04-15T00:55:31.925Z,4.0735
2023-04-15T00:56:32.987Z,4.1000
2023-04-15T00:57:34.111Z,4.1359
2023-04-15T00:58:35.143Z,4.2776
2023-04-15T00:59:36.195Z,4.3908
2023-04-15T01:00:37.230Z,4.3185
2023-04-15T01:01:38.322Z,4.3167
2023-04-15T01:02:39.598Z,4.3173
2023-04-15T01:03:40.467Z,4.3575
2023-04-15T01:04:41.393Z,4.4214
2023-04-15T01:05:42.442Z,4.4249
2023-04-15T01:06:43.534Z,4.4237
2023-04-15T01:07:44.596Z,4.4216
2023-04-15T01:08:45.626Z,4.3974
2023-04-15T01:09:46.594Z,4.4116
2023-04-15T01:10:47.666Z,4.4450
2023-04-15T01:11:48.724Z,4.5017
2023-04-15T01:12:49.733Z,4.4300
2023-04-15T01:13:50.828Z,4.5097
2023-04-15T01:14:51.833Z,4.5077
2023-04-15T01:15:52.845Z,4.5202
2023-04-15T01:16:53.860Z,4.5422
2023-04-15T01:17:55.029Z,4.5533
2023-04-15T01:18:55.947Z,4.5323
2023-04-15T01:19:57.015Z,4.5272
2023-04-15T01:20:58.031Z,4.6320
2023-04-15T01:21:59.072Z,4.6533
2023-04-15T01:23:00.263Z,4.6178
2023-04-15T01:24:01.170Z,4.6958
2023-04-15T01:25:02.202Z,4.6985
2023-04-15T01:26:03.272Z,4.7006
2023-04-15T01:27:04.278Z,4.5997
2023-04-15T01:28:05.383Z,4.5738
2023-04-15T01:29:06.344Z,4.5751
2023-04-15T01:30:07.453Z,4.5886
2023-04-15T01:31:08.518Z,4.6112
2023-04-15T01:32:09.472Z,4.6741
2023-04-15T01:33:10.531Z,4.7102
2023-04-15T01:34:11.555Z,4.6640
2023-04-15T01:35:12.608Z,4.7012
2023-04-15T01:36:13.613Z,4.7458
2023-04-15T01:37:14.650Z,4.7942
2023-04-15T01:38:15.730Z,4.8010
2023-04-15T01:39:16.829Z,4.8279
2023-04-15T01:40:17.778Z,4.8269
2023-04-15T01:41:18.833Z,4.8398
2023-04-15T01:42:19.850Z,4.8830
2023-04-15T01:43:20.926Z,4.9253
2023-04-15T01:44:21.932Z,4.9173
2023-04-15T01:45:22.951Z,4.9666
2023-04-15T01:46:24.021Z,5.0261
2023-04-15T01:47:25.072Z,5.0305
2023-04-15T01:48:26.145Z,5.0596
2023-04-15T01:49:27.127Z,5.0224
2023-04-15T01:50:28.090Z,4.9598
2023-04-15T01:51:29.144Z,4.9808
2023-04-15T01:52:30.171Z,4.9912
2023-04-15T01:53:31.226Z,4.9818
2023-04-15T01:54:32.262Z,4.8953
2023-04-15T01:55:33.318Z,4.8828
2023-04-15T01:56:34.351Z,4.8672
2023-04-15T01:57:35.372Z,4.8589
2023-04-15T01:58:36.472Z,4.8064
2023-04-15T01:59:37.473Z,4.8059
2023-04-15T02:00:38.539Z,4.7924
2023-04-15T02:01:39.573Z,4.8300
2023-04-15T02:02:40.746Z,4.8214
2023-04-15T02:03:41.781Z,4.7776
2023-04-15T02:04:42.685Z,4.7889
2023-04-15T02:05:43.702Z,4.8281
2023-04-15T02:06:44.731Z,4.8495
2023-04-15T02:07:45.769Z,4.8388
2023-04-15T02:08:46.869Z,4.8292
2023-04-15T02:09:47.876Z,4.8337
2023-04-15T02:10:48.915Z,4.8189
2023-04-15T02:11:49.977Z,4.9045
2023-04-15T02:12:51.014Z,4.8797
2023-04-15T02:13:52.096Z,4.8959
2023-04-15T02:14:53.102Z,4.9043
2023-04-15T02:15:54.140Z,4.9243
2023-04-15T02:16:55.242Z,4.9573
2023-04-15T02:17:56.228Z,4.9175
2023-04-15T02:18:57.283Z,4.9294
2023-04-15T02:19:58.280Z,4.9247
2023-04-15T02:20:59.393Z,4.9282
2023-04-15T02:22:00.372Z,5.0031
2023-04-15T02:23:01.424Z,5.0391
2023-04-15T02:24:02.500Z,5.0436
2023-04-15T02:25:03.531Z,5.0335
2023-04-15T02:26:04.539Z,5.0261
2023-04-15T02:27:05.556Z,5.0629
2023-04-15T02:28:06.622Z,5.1085
2023-04-15T02:29:07.661Z,5.0898
2023-04-15T02:30:08.683Z,5.2944
2023-04-15T02:31:09.775Z,5.3505
2023-04-15T02:32:10.914Z,5.3897
2023-04-15T02:33:11.838Z,5.4090
2023-04-15T02:34:12.898Z,5.5000
2023-04-15T02:35:13.996Z,5.5540
2023-04-15T02:36:14.961Z,5.4059
2023-04-15T02:37:16.017Z,5.4994
2023-04-15T02:38:17.089Z,5.4861
2023-04-15T02:39:18.085Z,5.4146
2023-04-15T02:40:19.239Z,5.5206
2023-04-15T02:41:20.321Z,5.4974
2023-04-15T02:42:21.314Z,5.5886
2023-04-15T02:43:22.356Z,5.5779
2023-04-15T02:44:23.378Z,5.5974
2023-04-15T02:45:24.505Z,5.6231
2023-04-15T02:46:25.588Z,5.6124
2023-04-15T02:47:26.593Z,5.6568
2023-04-15T02:48:27.557Z,5.6081
2023-04-15T02:49:28.752Z,5.6407
2023-04-15T02:50:30.071Z,5.6717
2023-04-15T02:51:30.870Z,5.6418
2023-04-15T02:52:31.754Z,5.5495
2023-04-15T02:53:32.831Z,5.5150
2023-04-15T02:54:33.840Z,5.4380
2023-04-15T02:55:34.916Z,5.4068
2023-04-15T02:56:35.912Z,5.3486
2023-04-15T02:57:36.989Z,5.3022
2023-04-15T02:58:37.995Z,5.3665
2023-04-15T02:59:39.037Z,5.3347
2023-04-15T03:00:40.151Z,5.3289
2023-04-15T03:01:41.088Z,5.3571
2023-04-15T03:02:42.461Z,5.3088
2023-04-15T03:03:43.380Z,5.3053
2023-04-15T03:04:44.350Z,5.2932
2023-04-15T03:05:45.410Z,5.2889
2023-04-15T03:06:46.369Z,5.3636
2023-04-15T03:07:47.424Z,5.3152
2023-04-15T03:08:48.549Z,5.3197
2023-04-15T03:09:49.515Z,5.3353
2023-04-15T03:10:50.572Z,5.3180
2023-04-15T03:11:51.573Z,5.2677
2023-04-15T03:12:52.619Z,5.3022
2023-04-15T03:13:53.689Z,5.3281
2023-04-15T03:14:54.718Z,5.3427
2023-04-15T03:15:55.887Z,5.3883
2023-04-15T03:16:56.830Z,5.3873
2023-04-15T03:17:57.930Z,5.4076
2023-04-15T03:18:59.020Z,5.3768
2023-04-15T03:19:59.964Z,5.4374
2023-04-15T03:21:01.027Z,5.4493
2023-04-15T03:22:02.016Z,5.4101
2023-04-15T03:23:03.058Z,5.4339
2023-04-15T03:24:04.200Z,5.3949
2023-04-15T03:25:05.145Z,5.3990
2023-04-15T03:26:06.238Z,5.3671
2023-04-15T03:27:07.294Z,5.3548
2023-04-15T03:28:08.276Z,5.3601
2023-04-15T03:29:09.318Z,5.3634
2023-04-15T03:30:10.334Z,5.4088
2023-04-15T03:31:11.458Z,5.5777
2023-04-15T03:32:12.508Z,5.5918
2023-04-15T03:33:13.400Z,5.5497
2023-04-15T03:34:14.441Z,5.5627
2023-04-15T03:35:15.491Z,5.5477
2023-04-15T03:36:16.569Z,5.5629
2023-04-15T03:37:17.574Z,5.5354
2023-04-15T03:38:18.597Z,5.5142
2023-04-15T03:39:19.651Z,5.5228
2023-04-15T03:40:20.685Z,5.4524
2023-04-15T03:41:21.756Z,5.4713
2023-04-15T03:42:22.766Z,5.4657
2023-04-15T03:43:23.778Z,5.4709
2023-04-15T03:44:24.854Z,5.4733
2023-04-15T03:45:25.855Z,5.5140
2023-04-15T03:46:26.962Z,5.5366
2023-04-15T03:47:27.971Z,5.4807
2023-04-15T03:48:29.005Z,5.4914
2023-04-15T03:49:30.025Z,5.4275
2023-04-15T03:50:31.054Z,5.4072
2023-04-15T03:51:32.126Z,5.4472
2023-04-15T03:52:33.151Z,5.4055
2023-04-15T03:53:34.187Z,5.4458
2023-04-15T03:54:35.238Z,5.4532
2023-04-15T03:55:36.297Z,5.4659
2023-04-15T03:56:37.379Z,5.4503
2023-04-15T03:57:38.390Z,5.4339
2023-04-15T03:58:39.433Z,5.4536
2023-04-15T03:59:40.476Z,5.4647
2023-04-15T04:00:41.575Z,5.4598
2023-04-15T04:01:42.688Z,5.4096
2023-04-15T04:02:43.726Z,5.5812
2023-04-15T04:03:44.813Z,5.5109
2023-04-15T04:04:45.714Z,5.4817
2023-04-15T04:05:46.754Z,5.5257
2023-04-15T04:06:47.828Z,5.7017
2023-04-15T04:07:48.821Z,5.6333
2023-04-15T04:08:49.873Z,5.6872
2023-04-15T04:09:50.934Z,5.7445
2023-04-15T04:10:51.953Z,5.7712
2023-04-15T04:11:53.033Z,5.7356
2023-04-15T04:12:54.039Z,5.7989
2023-04-15T04:13:55.133Z,5.7457
2023-04-15T04:14:56.170Z,5.7868
2023-04-15T04:15:57.334Z,5.8314
2023-04-15T04:16:58.335Z,5.8710
2023-04-15T04:17:59.326Z,5.8081
2023-04-15T04:19:00.612Z,5.8190
2023-04-15T04:20:01.381Z,5.8708
2023-04-15T04:21:02.390Z,5.8500
2023-04-15T04:22:03.516Z,5.8433
2023-04-15T04:23:04.467Z,5.8844
2023-04-15T04:24:05.672Z,5.8831
2023-04-15T04:25:06.705Z,5.9123
2023-04-15T04:26:07.772Z,5.8509
2023-04-15T04:27:08.829Z,5.8338
2023-04-15T04:28:09.837Z,5.8628
2023-04-15T04:29:10.869Z,5.8254
2023-04-15T04:30:11.933Z,5.7747
2023-04-15T04:31:13.054Z,5.7689
2023-04-15T04:32:14.123Z,5.7348
2023-04-15T04:33:15.075Z,5.7102
2023-04-15T04:34:16.074Z,5.8379
2023-04-15T04:35:17.153Z,5.7718
2023-04-15T04:36:18.375Z,5.6796
2023-04-15T04:37:19.301Z,5.7036
2023-04-15T04:38:20.281Z,5.6424
2023-04-15T04:39:21.389Z,5.7554
2023-04-15T04:40:22.371Z,5.6830
2023-04-15T04:41:23.374Z,5.6360
2023-04-15T04:42:24.545Z,5.6303
2023-04-15T04:43:25.487Z,5.5941
2023-04-15T04:44:26.649Z,5.7679
2023-04-15T04:45:27.557Z,5.8581
2023-04-15T04:46:28.634Z,5.8909
2023-04-15T04:47:29.782Z,5.8550
2023-04-15T04:48:30.705Z,5.7993
2023-04-15T04:49:31.722Z,5.8829
2023-04-15T04:50:32.771Z,5.9651
2023-04-15T04:51:33.828Z,5.9092
2023-04-15T04:52:34.975Z,5.8747
2023-04-15T04:53:35.931Z,5.8410
2023-04-15T04:54:36.972Z,5.8870
2023-04-15T04:55:38.028Z,5.7810
2023-04-15T04:56:39.070Z,5.7712
2023-04-15T04:57:40.168Z,5.7282
2023-04-15T04:58:41.108Z,5.7806
2023-04-15T04:59:42.209Z,5.8301
2023-04-15T05:00:43.199Z,5.8546
2023-04-15T05:01:44.474Z,5.9306
2023-04-15T05:02:45.515Z,6.0242
2023-04-15T05:03:46.422Z,5.9977
2023-04-15T05:04:47.365Z,5.8624
2023-04-15T05:05:48.508Z,5.8057
2023-04-15T05:06:49.533Z,5.8860
2023-04-15T05:07:50.547Z,5.9267
2023-04-15T05:08:51.537Z,6.0035
2023-04-15T05:09:52.663Z,5.9610
2023-04-15T05:10:53.616Z,6.0127
2023-04-15T05:11:54.723Z,6.0000
2023-04-15T05:12:55.805Z,6.0084
2023-04-15T05:13:56.794Z,5.9979
2023-04-15T05:14:57.829Z,6.0160
2023-04-15T05:15:58.924Z,6.0113
2023-04-15T05:17:00.454Z,6.0142
2023-04-15T05:18:00.934Z,5.9415
2023-04-15T05:19:02.179Z,5.9425
2023-04-15T05:20:02.967Z,5.9419
2023-04-15T05:21:04.035Z,5.9016
2023-04-15T05:22:05.059Z,5.8981
2023-04-15T05:23:06.159Z,5.9002
2023-04-15T05:24:07.137Z,5.9318
2023-04-15T05:25:08.190Z,6.0552
2023-04-15T05:26:09.240Z,6.0292
2023-04-15T05:27:10.261Z,6.0842
2023-04-15T05:28:11.372Z,6.1191
2023-04-15T05:29:12.349Z,6.1590
2023-04-15T05:30:13.842Z,6.2116
2023-04-15T05:31:14.513Z,6.2241
2023-04-15T05:32:15.491Z,6.2414
2023-04-15T05:33:16.603Z,6.2845
2023-04-15T05:34:17.562Z,6.2824
2023-04-15T05:35:18.640Z,6.3284
2023-04-15T05:36:19.659Z,6.3124
2023-04-15T05:37:20.700Z,6.3568
2023-04-15T05:38:21.774Z,6.3814
2023-04-15T05:39:22.775Z,6.3599
2023-04-15T05:40:23.840Z,6.3662
2023-04-15T05:41:24.878Z,6.3915
2023-04-15T05:42:25.916Z,6.3821
2023-04-15T05:43:26.993Z,6.4012
2023-04-15T05:44:28.054Z,6.4404
2023-04-15T05:45:29.059Z,6.4067
2023-04-15T05:46:30.144Z,6.4346
2023-04-15T05:47:31.147Z,6.4973
2023-04-15T05:48:32.192Z,6.4868
2023-04-15T05:49:33.185Z,6.4283
2023-04-15T05:50:34.260Z,6.4081
2023-04-15T05:51:35.297Z,6.4338
2023-04-15T05:52:36.323Z,6.5439
2023-04-15T05:53:37.452Z,6.5332
2023-04-15T05:54:38.971Z,6.5439
2023-04-15T05:55:39.478Z,6.5727
2023-04-15T05:56:40.492Z,6.6109
2023-04-15T05:57:41.574Z,6.6520
2023-04-15T05:58:42.617Z,6.6764
2023-04-15T05:59:43.614Z,6.7243
2023-04-15T06:00:44.678Z,6.7608
2023-04-15T06:01:45.710Z,6.8190
2023-04-15T06:02:46.961Z,6.8186
2023-04-15T06:03:47.938Z,6.8660
2023-04-15T06:04:48.846Z,6.8843
2023-04-15T06:05:49.894Z,6.8787
2023-04-15T06:06:50.918Z,6.8968
2023-04-15T06:07:52.017Z,7.0174
2023-04-15T06:08:53.112Z,7.0733
2023-04-15T06:09:54.129Z,7.0735
2023-04-15T06:10:55.198Z,7.0367
2023-04-15T06:11:56.220Z,7.2181
2023-04-15T06:12:57.192Z,7.2904
2023-04-15T06:13:58.352Z,7.1846
2023-04-15T06:15:00.235Z,7.2224
2023-04-15T06:16:00.429Z,6.9858
2023-04-15T06:17:01.436Z,6.9287
2023-04-15T06:18:02.540Z,6.9911
2023-04-15T06:19:03.510Z,6.9584
2023-04-15T06:20:04.468Z,6.9272
2023-04-15T06:21:05.509Z,7.0449
2023-04-15T06:22:06.560Z,7.0687
2023-04-15T06:23:07.554Z,7.1599
2023-04-15T06:24:08.704Z,7.3247
2023-04-15T06:25:09.626Z,7.2963
2023-04-15T06:26:10.747Z,7.4539
2023-04-15T06:27:11.723Z,7.6852
2023-04-15T06:28:12.752Z,7.6427
2023-04-15T06:29:13.850Z,7.8294
2023-04-15T06:30:14.827Z,7.9138
2023-04-15T06:31:15.863Z,7.9372
2023-04-15T06:32:16.949Z,8.1319
2023-04-15T06:33:17.989Z,7.9524
2023-04-15T06:34:19.014Z,7.8686
2023-04-15T06:35:20.054Z,8.0679
2023-04-15T06:36:21.076Z,8.0662
2023-04-15T06:37:22.131Z,8.1091
2023-04-15T06:38:23.151Z,8.1161
2023-04-15T06:39:24.267Z,8.1706
2023-04-15T06:40:25.303Z,8.1502
2023-04-15T06:41:26.269Z,8.1211
2023-04-15T06:42:27.307Z,8.3293
2023-04-15T06:43:28.333Z,8.2022
2023-04-15T06:44:29.403Z,8.3232
2023-04-15T06:45:30.511Z,8.3774
2023-04-15T06:46:31.471Z,8.2166
2023-04-15T06:47:32.516Z,8.2872
2023-04-15T06:48:33.510Z,8.2731
2023-04-15T06:49:34.628Z,8.2332
2023-04-15T06:50:35.662Z,8.1864
2023-04-15T06:51:36.664Z,8.2507
2023-04-15T06:52:37.706Z,8.1463
2023-04-15T06:53:38.715Z,8.1112
2023-04-15T06:54:39.818Z,8.1650
2023-04-15T06:55:40.830Z,8.2153
2023-04-15T06:56:41.813Z,7.9939
2023-04-15T06:57:42.875Z,7.8288
2023-04-15T06:58:43.947Z,7.8339
2023-04-15T06:59:44.902Z,7.8692
2023-04-15T07:00:45.957Z,8.0021
2023-04-15T07:01:46.956Z,8.0015
2023-04-15T07:02:48.056Z,7.9921
2023-04-15T07:03:49.128Z,8.1229
2023-04-15T07:04:50.149Z,8.2562
2023-04-15T07:05:51.135Z,8.4076
2023-04-15T07:06:52.223Z,8.5524
2023-04-15T07:07:53.253Z,8.5625
2023-04-15T07:08:54.288Z,8.4813
2023-04-15T07:09:55.343Z,8.2868
2023-04-15T07:10:56.359Z,8.1823
2023-04-15T07:11:57.397Z,8.3867
2023-04-15T07:12:58.401Z,8.3078
2023-04-15T07:13:59.475Z,8.5565
2023-04-15T07:15:00.516Z,8.5424
2023-04-15T07:16:01.650Z,8.7274
2023-04-15T07:17:02.608Z,8.7319
2023-04-15T07:18:03.621Z,8.7860
2023-04-15T07:19:04.817Z,8.7059
2023-04-15T07:20:05.684Z,8.7309
2023-04-15T07:21:06.710Z,8.8328
2023-04-15T07:22:07.777Z,8.6718
2023-04-15T07:23:08.982Z,8.9123
2023-04-15T07:24:09.799Z,8.6323
2023-04-15T07:25:11.183Z,8.6356
2023-04-15T07:26:11.933Z,8.3871
2023-04-15T07:27:12.944Z,8.5027
2023-04-15T07:28:13.973Z,8.5298
2023-04-15T07:29:15.020Z,8.6672
2023-04-15T07:30:16.062Z,8.4267
2023-04-15T07:31:17.184Z,8.5054
2023-04-15T07:32:18.128Z,8.5709
2023-04-15T07:33:19.171Z,8.7096
2023-04-15T07:34:20.399Z,8.7307
2023-04-15T07:35:21.233Z,8.4715
2023-04-15T07:36:22.323Z,8.6950
2023-04-15T07:37:23.332Z,8.7463
2023-04-15T07:38:24.375Z,8.7841
2023-04-15T07:39:25.411Z,8.5093
2023-04-15T07:40:26.493Z,8.3431
2023-04-15T07:41:27.572Z,8.4078
2023-04-15T07:42:28.537Z,8.3912
2023-04-15T07:43:29.595Z,8.4963
2023-04-15T07:44:30.619Z,8.6617
2023-04-15T07:45:31.680Z,8.7030
2023-04-15T07:46:32.774Z,8.7981
2023-04-15T07:47:33.787Z,8.7048
2023-04-15T07:48:35.610Z,8.7361
2023-04-15T07:49:35.916Z,8.5247
2023-04-15T07:50:36.991Z,8.3817
2023-04-15T07:51:38.069Z,8.4875
2023-04-15T07:52:39.057Z,8.4857
2023-04-15T07:53:40.118Z,8.4920
2023-04-15T07:54:41.138Z,8.4131
2023-04-15T07:55:42.184Z,8.6360
2023-04-15T07:56:43.280Z,8.6044
2023-04-15T07:57:44.214Z,8.3932
2023-04-15T07:58:45.260Z,8.5547
2023-04-15T07:59:46.299Z,8.5571
2023-04-15T08:00:47.392Z,8.4614
2023-04-15T08:01:48.477Z,8.2172
2023-04-15T08:02:49.553Z,8.0804
2023-04-15T08:03:50.671Z,8.0995
2023-04-15T08:04:51.704Z,8.1660
2023-04-15T08:05:52.619Z,8.0352
2023-04-15T08:06:53.636Z,8.1552
2023-04-15T08:07:54.641Z,8.0262
2023-04-15T08:08:55.747Z,8.1675
2023-04-15T08:09:56.680Z,8.0898
2023-04-15T08:10:57.766Z,8.1437
2023-04-15T08:11:58.837Z,8.2180
2023-04-15T08:12:59.899Z,8.3306
2023-04-15T08:14:00.835Z,8.2636
2023-04-15T08:15:01.924Z,8.0625
2023-04-15T08:16:03.005Z,8.3026
2023-04-15T08:17:04.038Z,8.5146
2023-04-15T08:18:05.020Z,8.5960
2023-04-15T08:19:06.046Z,8.6163
2023-04-15T08:20:07.082Z,8.4898
2023-04-15T08:21:08.159Z,8.4842
2023-04-15T08:22:15.371Z,8.7794
2023-04-15T08:23:10.166Z,8.7106
2023-04-15T08:24:11.261Z,8.7165
2023-04-15T08:25:12.246Z,8.8829
2023-04-15T08:26:13.388Z,9.0624
2023-04-15T08:27:14.433Z,8.9256
2023-04-15T08:28:15.410Z,8.9024
2023-04-15T08:29:16.437Z,8.8609
2023-04-15T08:30:17.479Z,9.1329
2023-04-15T08:31:18.557Z,8.9349
2023-04-15T08:32:19.636Z,9.1163
2023-04-15T08:33:20.593Z,9.3069
2023-04-15T08:34:21.626Z,9.1672
2023-04-15T08:35:22.806Z,9.1241
2023-04-15T08:36:23.736Z,9.0803
2023-04-15T08:37:24.668Z,9.1475
2023-04-15T08:38:25.710Z,9.1514
2023-04-15T08:39:26.732Z,9.1769
2023-04-15T08:40:27.795Z,9.2383
2023-04-15T08:41:28.814Z,9.2381
2023-04-15T08:42:29.915Z,9.3595
2023-04-15T08:43:30.892Z,9.3849
2023-04-15T08:44:31.972Z,9.2268
2023-04-15T08:45:32.998Z,9.3909
2023-04-15T08:46:34.032Z,9.3519
2023-04-15T08:47:35.073Z,9.0329
2023-04-15T08:48:36.057Z,8.7145
2023-04-15T08:49:37.100Z,8.6124
2023-04-15T08:50:38.142Z,8.6264
2023-04-15T08:51:39.187Z,8.6036
2023-04-15T08:52:40.261Z,8.6522
2023-04-15T08:53:41.266Z,8.7054
2023-04-15T08:54:42.308Z,9.1134
2023-04-15T08:55:43.309Z,9.2993
2023-04-15T08:56:44.414Z,9.4114
2023-04-15T08:57:45.450Z,9.5489
2023-04-15T08:58:46.465Z,9.5998
2023-04-15T08:59:47.528Z,9.5400
2023-04-15T09:00:48.650Z,9.4646
2023-04-15T09:01:49.628Z,9.4418
2023-04-15T09:02:50.730Z,9.2023
2023-04-15T09:03:51.777Z,9.2872
2023-04-15T09:04:52.921Z,8.6976
2023-04-15T09:05:53.762Z,8.7510
2023-04-15T09:06:54.782Z,8.9211
2023-04-15T09:07:55.935Z,8.9429
2023-04-15T09:08:56.861Z,9.1167
2023-04-15T09:09:57.923Z,9.1218
2023-04-15T09:10:58.990Z,8.8932
2023-04-15T09:11:59.998Z,8.9901
2023-04-15T09:13:01.089Z,8.9760
2023-04-15T09:14:02.080Z,8.7938
2023-04-15T09:15:03.141Z,8.7771
2023-04-15T09:16:04.232Z,8.9828
2023-04-15T09:17:05.295Z,8.6964
2023-04-15T09:18:06.264Z,8.9788
2023-04-15T09:19:07.265Z,8.9795
2023-04-15T09:20:08.300Z,9.1230
2023-04-15T09:21:09.638Z,9.2547
2023-04-15T09:22:10.357Z,9.4523
2023-04-15T09:23:11.484Z,9.6205
2023-04-15T09:24:12.433Z,9.6489
2023-04-15T09:25:13.514Z,9.5074
2023-04-15T09:26:14.510Z,9.3030
2023-04-15T09:27:15.544Z,9.5033
2023-04-15T09:28:16.619Z,9.5374
2023-04-15T09:29:17.622Z,9.6183
2023-04-15T09:30:18.685Z,9.7623
2023-04-15T09:31:19.747Z,9.7830
2023-04-15T09:32:20.712Z,9.8426
2023-04-15T09:33:21.906Z,9.7218
2023-04-15T09:34:22.956Z,10.0536
2023-04-15T09:35:23.929Z,9.5996
2023-04-15T09:36:24.986Z,9.7259
2023-04-15T09:37:32.395Z,9.9184
2023-04-15T09:38:27.117Z,10.0490
2023-04-15T09:39:28.113Z,10.1561
2023-04-15T09:40:29.152Z,10.3220
2023-04-15T09:41:30.199Z,10.0706
2023-04-15T09:42:31.238Z,9.5156
2023-04-15T09:43:32.292Z,9.3447
2023-04-15T09:44:33.314Z,9.6070
2023-04-15T09:45:34.337Z,9.3794
2023-04-15T09:46:35.433Z,9.5135
2023-04-15T09:47:36.492Z,9.6399
2023-04-15T09:48:37.602Z,9.5495
2023-04-15T09:49:38.578Z,9.5211
2023-04-15T09:50:39.562Z,9.4061
2023-04-15T09:51:41.340Z,9.6166
2023-04-15T09:52:41.634Z,9.5571
2023-04-15T09:53:42.710Z,9.5111
2023-04-15T09:54:43.695Z,9.5372
2023-04-15T09:55:44.745Z,9.7559
2023-04-15T09:56:45.806Z,9.8352
2023-04-15T09:57:46.828Z,9.7637
2023-04-15T09:58:47.912Z,9.7512
2023-04-15T09:59:48.873Z,9.8716
2023-04-15T10:00:49.973Z,10.0256
2023-04-15T10:01:51.075Z,10.0848
2023-04-15T10:02:52.056Z,10.2064
2023-04-15T10:03:53.115Z,10.2703
2023-04-15T10:04:54.110Z,9.8527
2023-04-15T10:05:55.163Z,9.9149
2023-04-15T10:06:56.158Z,9.7233
2023-04-15T10:07:57.247Z,9.7571
2023-04-15T10:08:58.253Z,9.9055
2023-04-15T10:09:59.271Z,9.7783
2023-04-15T10:11:00.277Z,9.9790
2023-04-15T10:12:01.324Z,9.8410
2023-04-15T10:13:02.356Z,9.6861
2023-04-15T10:14:03.745Z,9.6612
2023-04-15T10:15:04.423Z,9.5686
2023-04-15T10:16:05.483Z,9.7978
2023-04-15T10:17:06.478Z,9.9759
2023-04-15T10:18:07.766Z,9.8814
2023-04-15T10:19:08.523Z,10.0188
2023-04-15T10:20:09.516Z,10.0474
2023-04-15T10:21:10.543Z,10.1166
2023-04-15T10:22:11.616Z,10.0285
2023-04-15T10:23:13.462Z,10.1694
2023-04-15T10:24:13.696Z,10.1538
2023-04-15T10:25:14.702Z,10.2314
2023-04-15T10:26:15.734Z,10.1283
2023-04-15T10:27:16.788Z,10.1349
2023-04-15T10:28:17.810Z,10.1217
2023-04-15T10:29:18.882Z,10.1076
2023-04-15T10:30:19.899Z,10.0472
2023-04-15T10:31:20.971Z,10.1314
2023-04-15T10:32:21.991Z,10.2308
2023-04-15T10:33:23.006Z,10.2762
2023-04-15T10:34:24.061Z,10.1526
2023-04-15T10:35:25.095Z,9.9303
2023-04-15T10:36:26.108Z,10.0114
2023-04-15T10:37:27.188Z,9.9182
2023-04-15T10:38:28.206Z,10.1195
2023-04-15T10:39:29.279Z,10.2875
2023-04-15T10:40:30.302Z,10.2561
2023-04-15T10:41:31.387Z,10.2095
2023-04-15T10:42:32.385Z,10.1702
2023-04-15T10:43:33.379Z,10.0926
2023-04-15T10:44:34.471Z,10.0377
2023-04-15T10:45:35.505Z,10.3070
2023-04-15T10:46:36.564Z,10.0885
2023-04-15T10:47:37.597Z,10.1739
2023-04-15T10:48:38.610Z,10.3873
2023-04-15T10:49:39.626Z,10.4009
2023-04-15T10:50:40.732Z,10.2353
2023-04-15T10:51:41.756Z,10.0431
2023-04-15T10:52:42.738Z,10.0837
2023-04-15T10:53:43.801Z,9.8981
2023-04-15T10:54:44.806Z,10.1222
2023-04-15T10:55:45.867Z,10.3397
2023-04-15T10:56:46.899Z,10.4428
2023-04-15T10:57:47.934Z,10.4122
2023-04-15T10:58:48.998Z,10.3272
2023-04-15T10:59:50.029Z,9.6869
2023-04-15T11:00:51.068Z,9.7740
2023-04-15T11:01:52.194Z,9.8987
2023-04-15T11:02:53.161Z,9.8564
2023-04-15T11:03:54.325Z,9.8892
2023-04-15T11:04:55.560Z,10.0622
2023-04-15T11:05:56.316Z,9.8184
2023-04-15T11:06:57.303Z,9.9248
2023-04-15T11:07:58.364Z,10.0749
2023-04-15T11:08:59.463Z,10.0425
2023-04-15T11:10:00.434Z,10.2696
2023-04-15T11:11:01.512Z,10.2996
2023-04-15T11:12:02.503Z,10.2446
2023-04-15T11:13:03.552Z,9.6931
2023-04-15T11:14:04.733Z,9.9942
2023-04-15T11:15:05.605Z,9.9441
2023-04-15T11:16:06.748Z,10.1743
2023-04-15T11:17:07.760Z,10.1916
2023-04-15T11:18:08.907Z,10.2684
2023-04-15T11:19:09.883Z,10.0340
2023-04-15T11:20:10.913Z,10.2709
2023-04-15T11:21:12.035Z,10.0238
2023-04-15T11:22:12.949Z,9.9032
2023-04-15T11:23:15.015Z,9.8603
2023-04-15T11:24:15.104Z,10.0252
2023-04-15T11:25:16.075Z,10.0353
2023-04-15T11:26:17.187Z,9.7401
2023-04-15T11:27:18.183Z,9.8775
2023-04-15T11:28:19.181Z,9.7352
2023-04-15T11:29:20.239Z,9.6986
2023-04-15T11:30:21.302Z,9.7132
2023-04-15T11:31:22.461Z,9.7146
2023-04-15T11:32:23.415Z,9.5690
2023-04-15T11:33:24.447Z,9.5951
2023-04-15T11:34:25.449Z,9.7257
2023-04-15T11:35:26.533Z,9.8132
2023-04-15T11:36:27.614Z,9.6438
2023-04-15T11:37:28.592Z,9.5546
2023-04-15T11:38:29.640Z,9.6926
2023-04-15T11:39:30.686Z,9.8101
2023-04-15T11:40:31.761Z,9.7633
2023-04-15T11:41:32.830Z,9.7820
2023-04-15T11:42:48.571Z,9.8621
2023-04-15T11:43:34.853Z,9.7588
2023-04-15T11:44:35.887Z,9.8459
2023-04-15T11:45:37.039Z,9.8654
2023-04-15T11:46:37.882Z,9.8868
2023-04-15T11:47:38.926Z,9.9765
2023-04-15T11:48:39.937Z,9.8284
2023-04-15T11:49:40.982Z,9.9118
2023-04-15T11:50:42.022Z,9.7997
2023-04-15T11:51:43.103Z,9.8718
2023-04-15T11:52:44.102Z,9.9541
2023-04-15T11:53:45.123Z,10.0644
2023-04-15T11:54:46.193Z,9.9778
2023-04-15T11:55:47.220Z,9.4182
2023-04-15T11:56:48.282Z,9.5002
2023-04-15T11:57:49.309Z,9.4205
2023-04-15T11:58:50.329Z,9.4950
2023-04-15T11:59:51.373Z,9.5739
2023-04-15T12:00:52.424Z,10.1322
2023-04-15T12:01:53.483Z,10.1464
2023-04-15T12:02:54.756Z,10.2534
2023-04-15T12:03:55.577Z,10.2526
2023-04-15T12:04:56.624Z,10.1591
2023-04-15T12:05:57.573Z,10.5145
2023-04-15T12:06:58.617Z,10.4490
2023-04-15T12:07:59.650Z,10.7589
2023-04-15T12:09:00.710Z,10.7653
2023-04-15T12:10:01.700Z,10.4518
2023-04-15T12:11:02.746Z,10.7850
2023-04-15T12:12:03.877Z,10.6874
2023-04-15T12:13:04.846Z,10.8953
2023-04-15T12:14:06.163Z,10.9785
2023-04-15T12:15:06.905Z,11.0868
2023-04-15T12:16:07.974Z,11.0718
2023-04-15T12:17:09.034Z,11.1864
2023-04-15T12:18:10.070Z,10.9399
2023-04-15T12:19:11.026Z,10.8491
2023-04-15T12:20:12.109Z,10.0540
2023-04-15T12:21:13.212Z,10.2709
2023-04-15T12:22:14.305Z,10.4562
2023-04-15T12:23:15.324Z,10.1996
2023-04-15T12:24:16.408Z,10.2758
2023-04-15T12:25:17.360Z,10.0533
2023-04-15T12:26:18.406Z,10.1119
2023-04-15T12:27:19.439Z,10.0131
2023-04-15T12:28:20.422Z,10.1392
2023-04-15T12:29:21.444Z,10.5849
2023-04-15T12:30:22.463Z,10.6213
2023-04-15T12:31:23.524Z,10.6065
2023-04-15T12:32:24.637Z,10.8232
2023-04-15T12:33:25.604Z,10.6271
2023-04-15T12:34:26.990Z,10.5340
2023-04-15T12:35:27.638Z,10.6367
2023-04-15T12:36:28.725Z,10.7355
2023-04-15T12:37:29.953Z,10.8247
2023-04-15T12:38:30.768Z,10.7832